Grover Beach, CA (93433)

06:50 PDT le 30 septembre 2014 (GMT -0700)
Sierra Drive and Hillcrest | Change Station
CLOSE
Current Station
Stations météorologiques personnelles
Location: Arroyo Grande, CA
Altitude: 249 ft
Stations météo à proximité

Alt. 249 ft 35.13 °N, 120.60 °W | Updated 11 minutes ago

Ciel dégagé
Ciel dégagé
57.7 ° F
Paraît 57.7 ° F
N
0.0
Vent Variable Vent de NNO

Aujourd'hui
Haut(e) -- | Bas -- ° F
--% Risque de précip.
Hier
Haut(e) -- | Bas -- ° F
Precip. -- pouce
6:56 AM 6:47 PM
Lune montante, 37% visible
Pression 29.90 pouce
Visibilité 10.0 Miles terrestres
Nuages Ciel dégagé
Point de rosée 54 ° F
Humidité 88%
Précipitations 0.00 pouce
Profondeur de la couche neigeuse 0 in , 0 in , 1 in
UV 0 sur 12
Pollen 5.60 sur 12
Qualité de l'air Non disponible.
Flu Activity Non disponible.
METAR KSBP 301256Z 00000KT 10SM CLR 13/12 A2991 RMK AO2 SLP125 T01330117

More Conditions Fewer Conditions

Pression 29.90 pouce
Visibilité 10.0 Miles terrestres
Nuages Ciel dégagé
Point de rosée 54 ° F
Humidité 88%
Précipitations 0.00 pouce
Profondeur de la couche neigeuse 0 in , 0 in , 1 in
UV 0 sur 12
Pollen 5.60 sur 12
Qualité de l'air Non disponible.
Flu Activity Non disponible.
METAR KSBP 301256Z 00000KT 10SM CLR 13/12 A2991 RMK AO2 SLP125 T01330117

More Conditions Fewer Conditions

10-Day Weather Forecast

Almanac

Astronomie

Sep. 30, 2014 Lever Coucher
Temps réel 06:56 PDT 18:47 PDT
Crépuscule civil 06:31 PDT 19:12 PDT
Crépuscule nautique 06:01 PDT 19:42 PDT
Crépuscule astronomique 05:32 PDT 20:11 PDT
Lune 12:59 PDT 23:32 PDT
Durée de lumière visible 12h 41m
Longueur du jour
11h 51m
Tomorrow will be 2m 11s shorter.
Lune montante, 37% of the Moon is Illuminated
Aujourd'hui
Lune montante
Oct 1
Premier quartier
Oct 8
Pleine lune
Oct 15
Dernier quartier
Oct 23
Nouveau

Extrêmes aujourd'hui

State Highs State Lows

Community

WunderPhotos

Upload Photos

1,757,636 Photos téléchargées !

Nearby

Épaisseur de neige

Station Depth Altitude
Fallen Leaf 0 in 6300 ft
Horse Meadow 0 in 8631 ft
Summit Meadow 1 in 9122 ft
Spratt Creek 0 in 6200 ft
Sonora Pass 0 in 8800 ft

Activité sismique

Ville Distance Mag. Time & Date
South Dos Palos, California 105 Miles terrestres 2.5 21:18 PDT
2014-09-29
South Dos Palos, California 105 Miles terrestres 2.7 20:46 PDT
2014-09-28
South Dos Palos, California 104 Miles terrestres 4.4 13:45 PDT
2014-09-28
South Dos Palos, California 105 Miles terrestres 2.6 12:49 PDT
2014-09-28
Minimum magnitude displayed is 2.5.

Températures des eaux côtières

Lieu Température
Aucun rapport de station

Stations météo à proximité